createdAt,value
2023-04-21T00:00:58.769Z,98.97
2023-04-21T00:01:58.541Z,99.08
2023-04-21T00:02:58.806Z,99.08
2023-04-21T00:03:58.683Z,99.18
2023-04-21T00:04:58.596Z,99.29
2023-04-21T00:05:58.531Z,99.39
2023-04-21T00:06:58.494Z,99.39
2023-04-21T00:07:58.454Z,99.49
2023-04-21T00:08:58.435Z,99.60
2023-04-21T00:09:58.436Z,99.70
2023-04-21T00:10:58.429Z,99.85
2023-04-21T00:11:58.449Z,99.95
2023-04-21T00:12:58.396Z,99.99
2023-04-21T00:13:58.373Z,99.99
2023-04-21T00:14:58.347Z,99.99
2023-04-21T00:15:58.397Z,99.99
2023-04-21T00:16:58.338Z,99.99
2023-04-21T00:17:58.397Z,99.99
2023-04-21T00:18:58.325Z,99.99
2023-04-21T00:19:58.300Z,99.99
2023-04-21T00:20:58.295Z,99.99
2023-04-21T00:21:58.275Z,99.99
2023-04-21T00:22:58.299Z,99.99
2023-04-21T00:23:58.241Z,99.99
2023-04-21T00:24:58.233Z,99.99
2023-04-21T00:25:58.222Z,99.99
2023-04-21T00:26:58.204Z,99.99
2023-04-21T00:27:58.225Z,99.99
2023-04-21T00:28:58.224Z,99.99
2023-04-21T00:29:58.180Z,99.99
2023-04-21T00:30:58.192Z,99.99
2023-04-21T00:31:58.247Z,99.99
2023-04-21T00:32:58.201Z,99.99
2023-04-21T00:33:58.148Z,99.99
2023-04-21T00:34:58.100Z,99.99
2023-04-21T00:35:58.070Z,99.99
2023-04-21T00:36:58.083Z,99.99
2023-04-21T00:37:58.089Z,99.99
2023-04-21T00:38:58.054Z,99.99
2023-04-21T00:39:58.233Z,99.99
2023-04-21T00:40:58.022Z,99.99
2023-04-21T00:41:58.011Z,99.99
2023-04-21T00:42:57.991Z,99.99
2023-04-21T00:43:57.987Z,99.99
2023-04-21T00:44:58.000Z,99.99
2023-04-21T00:45:57.964Z,99.99
2023-04-21T00:46:57.996Z,99.99
2023-04-21T00:48:57.911Z,99.99
2023-04-21T00:49:57.903Z,99.99
2023-04-21T00:50:57.955Z,99.99
2023-04-21T00:51:57.875Z,99.99
2023-04-21T00:52:57.868Z,99.99
2023-04-21T00:53:57.895Z,99.99
2023-04-21T00:54:57.829Z,99.99
2023-04-21T00:55:57.857Z,99.99
2023-04-21T00:56:57.808Z,99.99
2023-04-21T00:57:57.795Z,99.99
2023-04-21T00:58:57.779Z,99.99
2023-04-21T00:59:57.768Z,99.99
2023-04-21T01:00:57.823Z,99.99
2023-04-21T01:01:57.903Z,99.99
2023-04-21T01:02:57.921Z,99.99
2023-04-21T01:03:57.809Z,99.99
2023-04-21T01:04:57.728Z,99.99
2023-04-21T01:05:57.693Z,99.99
2023-04-21T01:06:57.715Z,99.99
2023-04-21T01:07:57.677Z,99.99
2023-04-21T01:08:57.674Z,99.99
2023-04-21T01:09:57.656Z,99.99
2023-04-21T01:10:57.673Z,99.99
2023-04-21T01:11:57.619Z,99.99
2023-04-21T01:12:57.649Z,99.99
2023-04-21T01:13:57.591Z,99.99
2023-04-21T01:14:57.582Z,99.99
2023-04-21T01:15:57.583Z,99.99
2023-04-21T01:16:57.781Z,99.99
2023-04-21T01:17:57.594Z,99.99
2023-04-21T01:18:57.549Z,99.99
2023-04-21T01:19:57.504Z,99.99
2023-04-21T01:20:57.490Z,99.99
2023-04-21T01:21:57.490Z,99.99
2023-04-21T01:22:57.470Z,99.99
2023-04-21T01:23:57.472Z,99.99
2023-04-21T01:24:57.442Z,99.99
2023-04-21T01:25:57.424Z,99.99
2023-04-21T01:26:57.419Z,99.99
2023-04-21T01:27:57.420Z,99.99
2023-04-21T01:28:57.430Z,99.99
2023-04-21T01:29:57.394Z,99.99
2023-04-21T01:30:57.362Z,99.99
2023-04-21T01:31:57.384Z,99.99
2023-04-21T01:32:57.392Z,99.99
2023-04-21T01:33:57.349Z,99.99
2023-04-21T01:34:57.320Z,99.99
2023-04-21T01:35:57.298Z,99.99
2023-04-21T01:36:57.302Z,99.99
2023-04-21T01:37:57.276Z,99.99
2023-04-21T01:38:57.269Z,99.99
2023-04-21T01:39:57.242Z,99.99
2023-04-21T01:40:57.277Z,99.99
2023-04-21T01:41:57.259Z,99.99
2023-04-21T01:42:57.206Z,99.99
2023-04-21T01:43:57.196Z,99.99
2023-04-21T01:44:58.180Z,99.99
2023-04-21T01:45:57.236Z,99.99
2023-04-21T01:46:57.193Z,99.99
2023-04-21T01:47:57.178Z,99.99
2023-04-21T01:48:57.126Z,99.99
2023-04-21T01:49:57.158Z,99.99
2023-04-21T01:50:57.141Z,99.99
2023-04-21T01:51:57.103Z,99.99
2023-04-21T01:52:57.091Z,99.99
2023-04-21T01:53:57.062Z,99.99
2023-04-21T01:54:57.052Z,99.99
2023-04-21T01:55:57.084Z,99.99
2023-04-21T01:56:57.075Z,99.99
2023-04-21T01:57:57.018Z,99.99
2023-04-21T01:58:57.015Z,99.99
2023-04-21T01:59:56.996Z,99.99
2023-04-21T02:00:57.061Z,99.99
2023-04-21T02:01:56.991Z,99.99
2023-04-21T02:02:57.040Z,99.99
2023-04-21T02:03:57.070Z,99.99
2023-04-21T02:04:56.930Z,99.99
2023-04-21T02:05:56.972Z,99.99
2023-04-21T02:06:57.094Z,99.99
2023-04-21T02:07:56.899Z,99.99
2023-04-21T02:08:56.914Z,99.99
2023-04-21T02:09:56.856Z,99.99
2023-04-21T02:10:56.855Z,99.99
2023-04-21T02:11:56.838Z,99.99
2023-04-21T02:12:56.836Z,99.99
2023-04-21T02:13:56.798Z,99.99
2023-04-21T02:14:56.787Z,99.99
2023-04-21T02:16:09.623Z,99.99
2023-04-21T02:16:57.766Z,99.99
2023-04-21T02:17:56.826Z,99.99
2023-04-21T02:18:56.773Z,99.99
2023-04-21T02:19:56.720Z,99.99
2023-04-21T02:20:56.733Z,99.99
2023-04-21T02:21:56.727Z,99.99
2023-04-21T02:22:56.719Z,99.99
2023-04-21T02:23:56.695Z,99.99
2023-04-21T02:24:56.671Z,99.99
2023-04-21T02:25:56.669Z,99.99
2023-04-21T02:26:56.685Z,99.99
2023-04-21T02:27:56.787Z,99.99
2023-04-21T02:28:56.636Z,99.99
2023-04-21T02:29:56.679Z,99.99
2023-04-21T02:30:56.633Z,99.99
2023-04-21T02:32:05.267Z,99.99
2023-04-21T02:32:57.680Z,99.99
2023-04-21T02:33:56.547Z,99.99
2023-04-21T02:34:56.532Z,99.99
2023-04-21T02:35:56.508Z,99.99
2023-04-21T02:36:56.490Z,99.99
2023-04-21T02:37:56.484Z,99.99
2023-04-21T02:38:56.508Z,99.99
2023-04-21T02:39:56.458Z,99.99
2023-04-21T02:40:56.793Z,99.99
2023-04-21T02:41:56.429Z,99.99
2023-04-21T02:42:56.443Z,99.99
2023-04-21T02:43:56.451Z,99.99
2023-04-21T02:44:56.406Z,99.99
2023-04-21T02:45:56.389Z,99.99
2023-04-21T02:46:56.471Z,99.99
2023-04-21T02:47:56.413Z,99.99
2023-04-21T02:48:56.402Z,99.99
2023-04-21T02:49:56.320Z,99.99
2023-04-21T02:50:56.309Z,99.99
2023-04-21T02:51:56.319Z,99.99
2023-04-21T02:52:56.287Z,99.99
2023-04-21T02:53:56.269Z,99.99
2023-04-21T02:54:56.302Z,99.99
2023-04-21T02:55:56.323Z,99.99
2023-04-21T02:56:56.234Z,99.99
2023-04-21T02:57:56.220Z,99.99
2023-04-21T02:58:56.204Z,99.99
2023-04-21T02:59:56.210Z,99.99
2023-04-21T03:00:56.239Z,99.99
2023-04-21T03:01:56.188Z,99.99
2023-04-21T03:02:56.244Z,99.99
2023-04-21T03:03:56.184Z,99.99
2023-04-21T03:04:56.129Z,99.99
2023-04-21T03:05:56.146Z,99.99
2023-04-21T03:06:56.094Z,99.99
2023-04-21T03:07:56.091Z,99.99
2023-04-21T03:08:56.076Z,99.99
2023-04-21T03:09:56.059Z,99.99
2023-04-21T03:10:56.042Z,99.99
2023-04-21T03:11:56.241Z,99.99
2023-04-21T03:12:56.037Z,99.99
2023-04-21T03:13:56.026Z,99.99
2023-04-21T03:14:55.997Z,99.99
2023-04-21T03:15:55.981Z,99.99
2023-04-21T03:16:56.038Z,99.99
2023-04-21T03:17:55.981Z,99.99
2023-04-21T03:18:55.966Z,99.99
2023-04-21T03:19:55.952Z,99.99
2023-04-21T03:20:55.919Z,99.99
2023-04-21T03:21:55.920Z,99.99
2023-04-21T03:22:55.893Z,99.99
2023-04-21T03:23:55.878Z,99.99
2023-04-21T03:24:55.860Z,99.99
2023-04-21T03:25:55.854Z,99.99
2023-04-21T03:26:55.852Z,99.99
2023-04-21T03:27:55.836Z,99.99
2023-04-21T03:28:55.807Z,99.99
2023-04-21T03:29:55.794Z,99.99
2023-04-21T03:30:55.802Z,99.99
2023-04-21T03:31:55.863Z,99.99
2023-04-21T03:32:55.793Z,99.99
2023-04-21T03:33:55.739Z,99.99
2023-04-21T03:34:55.732Z,99.99
2023-04-21T03:35:55.749Z,99.99
2023-04-21T03:36:55.914Z,99.99
2023-04-21T03:37:55.694Z,99.99
2023-04-21T03:38:59.093Z,99.99
2023-04-21T03:39:56.655Z,99.99
2023-04-21T03:40:55.654Z,99.99
2023-04-21T03:41:55.654Z,99.99
2023-04-21T03:42:55.656Z,99.99
2023-04-21T03:43:55.641Z,99.99
2023-04-21T03:44:55.629Z,99.99
2023-04-21T03:45:55.602Z,99.99
2023-04-21T03:46:55.576Z,99.99
2023-04-21T03:47:55.877Z,99.99
2023-04-21T03:48:55.554Z,99.99
2023-04-21T03:49:55.535Z,99.99
2023-04-21T03:50:55.519Z,99.99
2023-04-21T03:51:55.512Z,99.99
2023-04-21T03:52:55.487Z,99.99
2023-04-21T03:53:55.517Z,99.99
2023-04-21T03:54:55.515Z,99.99
2023-04-21T03:55:55.468Z,99.99
2023-04-21T03:56:55.460Z,99.99
2023-04-21T03:57:55.447Z,99.99
2023-04-21T03:58:55.440Z,99.99
2023-04-21T03:59:55.410Z,99.99
2023-04-21T04:00:55.390Z,99.99
2023-04-21T04:01:55.388Z,99.99
2023-04-21T04:02:55.600Z,99.99
2023-04-21T04:03:55.490Z,99.99
2023-04-21T04:04:55.441Z,99.99
2023-04-21T04:05:55.344Z,99.99
2023-04-21T04:06:55.353Z,99.99
2023-04-21T04:07:55.292Z,99.99
2023-04-21T04:08:55.304Z,99.99
2023-04-21T04:09:55.274Z,99.99
2023-04-21T04:10:55.290Z,99.99
2023-04-21T04:11:55.291Z,99.99
2023-04-21T04:12:55.450Z,99.99
2023-04-21T04:13:55.226Z,99.99
2023-04-21T04:14:55.206Z,99.99
2023-04-21T04:15:55.255Z,99.99
2023-04-21T04:16:55.180Z,99.99
2023-04-21T04:17:55.233Z,99.99
2023-04-21T04:18:55.169Z,99.99
2023-04-21T04:19:55.142Z,99.99
2023-04-21T04:20:55.126Z,99.99
2023-04-21T04:21:55.110Z,99.99
2023-04-21T04:22:55.121Z,99.99
2023-04-21T04:23:55.096Z,99.99
2023-04-21T04:24:55.072Z,99.99
2023-04-21T04:25:55.071Z,99.99
2023-04-21T04:26:55.040Z,99.99
2023-04-21T04:27:55.034Z,99.99
2023-04-21T04:28:55.044Z,99.99
2023-04-21T04:29:55.013Z,99.99
2023-04-21T04:30:55.007Z,99.99
2023-04-21T04:31:54.994Z,99.99
2023-04-21T04:32:54.998Z,99.99
2023-04-21T04:33:55.780Z,99.99
2023-04-21T04:34:54.946Z,99.99
2023-04-21T04:35:54.977Z,99.99
2023-04-21T04:36:54.915Z,99.99
2023-04-21T04:37:54.904Z,99.99
2023-04-21T04:38:54.888Z,99.99
2023-04-21T04:39:54.884Z,99.99
2023-04-21T04:40:54.898Z,99.99
2023-04-21T04:41:54.897Z,99.99
2023-04-21T04:42:54.842Z,99.99
2023-04-21T04:43:54.821Z,99.99
2023-04-21T04:44:54.808Z,99.99
2023-04-21T04:45:54.793Z,99.99
2023-04-21T04:46:54.830Z,99.99
2023-04-21T04:47:54.899Z,99.99
2023-04-21T04:48:54.762Z,99.99
2023-04-21T04:49:54.766Z,99.99
2023-04-21T04:50:54.734Z,99.99
2023-04-21T04:51:54.717Z,99.99
2023-04-21T04:52:54.756Z,99.99
2023-04-21T04:53:54.712Z,99.99
2023-04-21T04:54:54.669Z,99.99
2023-04-21T04:55:54.671Z,99.99
2023-04-21T04:56:54.650Z,99.99
2023-04-21T04:57:54.639Z,99.99
2023-04-21T04:58:54.624Z,99.99
2023-04-21T04:59:54.632Z,99.99
2023-04-21T05:00:54.625Z,99.99
2023-04-21T05:01:54.656Z,99.99
2023-04-21T05:02:54.656Z,99.99
2023-04-21T05:03:54.789Z,99.99
2023-04-21T05:04:54.643Z,99.99
2023-04-21T05:05:54.530Z,99.99
2023-04-21T05:06:54.523Z,99.99
2023-04-21T05:07:54.509Z,99.99
2023-04-21T05:08:54.518Z,99.99
2023-04-21T05:09:54.552Z,99.99
2023-04-21T05:10:54.479Z,99.99
2023-04-21T05:11:54.472Z,99.99
2023-04-21T05:12:54.437Z,99.99
2023-04-21T05:13:54.440Z,99.99
2023-04-21T05:14:54.427Z,99.99
2023-04-21T05:15:54.439Z,99.99
2023-04-21T05:16:54.651Z,99.99
2023-04-21T05:17:54.457Z,99.99
2023-04-21T05:18:54.378Z,99.99
2023-04-21T05:19:54.352Z,99.99
2023-04-21T05:20:54.330Z,99.99
2023-04-21T05:21:54.371Z,99.99
2023-04-21T05:22:54.390Z,99.99
2023-04-21T05:23:54.303Z,99.99
2023-04-21T05:24:54.290Z,99.99
2023-04-21T05:25:54.307Z,99.99
2023-04-21T05:26:54.252Z,99.99
2023-04-21T05:27:54.268Z,99.99
2023-04-21T05:28:54.259Z,99.99
2023-04-21T05:29:54.252Z,99.99
2023-04-21T05:30:54.213Z,99.99
2023-04-21T05:31:54.223Z,99.99
2023-04-21T05:32:54.234Z,99.99
2023-04-21T05:33:54.178Z,99.99
2023-04-21T05:34:54.153Z,99.99
2023-04-21T05:35:54.161Z,99.99
2023-04-21T05:36:54.139Z,99.99
2023-04-21T05:37:54.210Z,99.99
2023-04-21T05:38:54.308Z,99.99
2023-04-21T05:39:54.096Z,99.99
2023-04-21T05:40:54.102Z,99.99
2023-04-21T05:41:54.103Z,99.99
2023-04-21T05:42:54.068Z,99.99
2023-04-21T05:43:54.058Z,99.99
2023-04-21T05:44:54.256Z,99.99
2023-04-21T05:45:54.089Z,99.99
2023-04-21T05:46:54.095Z,99.99
2023-04-21T05:47:54.043Z,99.99
2023-04-21T05:48:53.993Z,99.99
2023-04-21T05:49:54.180Z,99.99
2023-04-21T05:50:53.961Z,99.99
2023-04-21T05:51:54.005Z,99.99
2023-04-21T05:52:53.915Z,99.99
2023-04-21T05:53:53.902Z,99.99
2023-04-21T05:54:53.961Z,99.99
2023-04-21T05:55:53.909Z,99.99
2023-04-21T05:56:53.867Z,99.99
2023-04-21T05:57:53.888Z,99.99
2023-04-21T05:58:53.838Z,99.99
2023-04-21T05:59:53.856Z,99.99
2023-04-21T06:00:53.832Z,99.99
2023-04-21T06:01:54.033Z,99.99
2023-04-21T06:02:53.890Z,99.99
2023-04-21T06:03:53.944Z,99.99
2023-04-21T06:04:54.173Z,99.99
2023-04-21T06:05:53.889Z,99.99
2023-04-21T06:06:53.986Z,99.99
2023-04-21T06:07:53.723Z,99.99
2023-04-21T06:08:53.841Z,99.99
2023-04-21T06:09:53.775Z,99.99
2023-04-21T06:10:53.687Z,99.99
2023-04-21T06:11:53.686Z,99.99
2023-04-21T06:12:53.717Z,99.99
2023-04-21T06:13:53.706Z,99.99
2023-04-21T06:14:53.726Z,99.99
2023-04-21T06:15:53.674Z,99.99
2023-04-21T06:16:53.658Z,99.99
2023-04-21T06:17:53.612Z,99.99
2023-04-21T06:18:53.573Z,99.99
2023-04-21T06:19:53.626Z,99.99
2023-04-21T06:20:53.560Z,99.99
2023-04-21T06:21:53.541Z,99.99
2023-04-21T06:22:53.536Z,99.99
2023-04-21T06:23:53.539Z,99.99
2023-04-21T06:24:53.516Z,99.99
2023-04-21T06:25:53.516Z,99.99
2023-04-21T06:26:53.545Z,99.99
2023-04-21T06:27:53.522Z,99.99
2023-04-21T06:28:53.476Z,99.99
2023-04-21T06:29:53.442Z,99.99
2023-04-21T06:30:53.487Z,99.99
2023-04-21T06:31:53.469Z,99.99
2023-04-21T06:32:53.439Z,99.99
2023-04-21T06:33:53.389Z,99.99
2023-04-21T06:34:53.398Z,99.99
2023-04-21T06:35:53.376Z,99.99
2023-04-21T06:36:53.328Z,99.99
2023-04-21T06:37:53.338Z,99.99
2023-04-21T06:38:53.329Z,99.99
2023-04-21T06:39:53.301Z,99.99
2023-04-21T06:40:53.281Z,99.99
2023-04-21T06:41:53.354Z,99.99
2023-04-21T06:42:53.278Z,99.99
2023-04-21T06:43:53.277Z,99.99
2023-04-21T06:44:53.242Z,99.99
2023-04-21T06:45:53.245Z,99.99
2023-04-21T06:46:53.244Z,99.99
2023-04-21T06:47:53.481Z,99.99
2023-04-21T06:48:53.174Z,99.99
2023-04-21T06:49:53.195Z,99.99
2023-04-21T06:50:53.165Z,99.99
2023-04-21T06:51:53.146Z,99.99
2023-04-21T06:52:53.137Z,99.99
2023-04-21T06:53:53.172Z,99.99
2023-04-21T06:54:53.146Z,99.99
2023-04-21T06:55:53.117Z,99.99
2023-04-21T06:56:53.091Z,99.99
2023-04-21T06:57:53.076Z,99.99
2023-04-21T06:58:53.087Z,99.99
2023-04-21T06:59:53.059Z,99.99
2023-04-21T07:00:53.081Z,99.99
2023-04-21T07:01:53.044Z,99.99
2023-04-21T07:02:53.162Z,99.99
2023-04-21T07:03:53.398Z,99.99
2023-04-21T07:04:53.043Z,99.99
2023-04-21T07:05:52.978Z,99.99
2023-04-21T07:06:52.953Z,99.99
2023-04-21T07:07:52.962Z,99.99
2023-04-21T07:08:53.056Z,99.99
2023-04-21T07:09:53.019Z,99.99
2023-04-21T07:10:52.930Z,99.99
2023-04-21T07:11:52.935Z,99.99
2023-04-21T07:12:52.876Z,99.99
2023-04-21T07:13:52.892Z,99.99
2023-04-21T07:14:52.932Z,99.99
2023-04-21T07:15:52.883Z,99.99
2023-04-21T07:16:52.948Z,99.99
2023-04-21T07:17:52.952Z,99.99
2023-04-21T07:18:53.418Z,99.99
2023-04-21T07:19:52.833Z,99.99
2023-04-21T07:20:52.814Z,99.99
2023-04-21T07:21:52.748Z,99.99
2023-04-21T07:22:52.747Z,99.99
2023-04-21T07:23:52.785Z,99.99
2023-04-21T07:24:52.721Z,99.99
2023-04-21T07:25:52.773Z,99.99
2023-04-21T07:26:52.775Z,99.99
2023-04-21T07:27:52.717Z,99.99
2023-04-21T07:28:52.687Z,99.99
2023-04-21T07:29:52.660Z,99.99
2023-04-21T07:30:52.728Z,99.99
2023-04-21T07:31:52.631Z,99.99
2023-04-21T07:32:52.775Z,99.99
2023-04-21T07:33:52.598Z,99.99
2023-04-21T07:34:52.582Z,99.99
2023-04-21T07:35:52.592Z,99.99
2023-04-21T07:36:52.575Z,99.99
2023-04-21T07:37:52.561Z,99.99
2023-04-21T07:38:52.533Z,99.99
2023-04-21T07:39:52.507Z,99.99
2023-04-21T07:40:52.514Z,99.99
2023-04-21T07:41:52.721Z,99.99
2023-04-21T07:42:52.602Z,99.99
2023-04-21T07:43:53.895Z,99.99
2023-04-21T07:47:10.502Z,99.99
2023-04-21T07:48:10.339Z,99.99
2023-04-21T07:49:10.350Z,99.99
2023-04-21T07:50:10.259Z,99.99
2023-04-21T07:51:10.262Z,99.99
2023-04-21T07:52:10.245Z,99.99
2023-04-21T07:53:10.266Z,99.99
2023-04-21T07:54:10.239Z,99.99
2023-04-21T07:55:10.198Z,99.99
2023-04-21T07:56:10.230Z,99.99
2023-04-21T07:57:10.163Z,99.91
2023-04-21T07:58:10.191Z,99.82
2023-04-21T07:59:10.144Z,99.71
2023-04-21T08:00:10.134Z,99.30
2023-04-21T08:01:10.128Z,98.90
2023-04-21T08:02:10.196Z,98.38
2023-04-21T08:03:10.272Z,98.28
2023-04-21T08:04:10.189Z,98.18
2023-04-21T08:05:10.276Z,98.18
2023-04-21T08:06:10.350Z,98.28
2023-04-21T08:07:10.379Z,98.18
2023-04-21T08:08:10.033Z,98.24
2023-04-21T08:09:10.026Z,98.24
2023-04-21T08:10:10.038Z,98.33
2023-04-21T08:11:11.043Z,98.03
2023-04-21T08:12:09.965Z,97.92
2023-04-21T08:13:10.101Z,97.72
2023-04-21T08:14:09.954Z,97.62
2023-04-21T08:15:09.963Z,97.52
2023-04-21T08:16:09.945Z,97.62
2023-04-21T08:17:09.915Z,97.62
2023-04-21T08:18:09.961Z,97.62
2023-04-21T08:19:10.383Z,97.00
2023-04-21T08:20:09.886Z,96.70
2023-04-21T08:21:09.872Z,96.59
2023-04-21T08:22:09.844Z,96.39
2023-04-21T08:23:09.889Z,96.14
2023-04-21T08:24:09.845Z,96.14
2023-04-21T08:25:09.805Z,96.14
2023-04-21T08:26:09.825Z,96.34
2023-04-21T08:27:09.778Z,96.45
2023-04-21T08:28:09.847Z,96.55
2023-04-21T08:29:09.879Z,96.66
2023-04-21T08:30:09.749Z,96.55
2023-04-21T08:31:09.770Z,96.34
2023-04-21T08:32:09.875Z,96.04
2023-04-21T08:33:09.773Z,95.94
2023-04-21T08:34:09.730Z,95.73
2023-04-21T08:35:09.701Z,95.32
2023-04-21T08:36:15.351Z,95.12
2023-04-21T08:37:10.650Z,95.22
2023-04-21T08:38:09.649Z,95.32
2023-04-21T08:39:09.670Z,95.22
2023-04-21T08:40:09.651Z,95.22
2023-04-21T08:41:09.620Z,95.02
2023-04-21T08:42:09.580Z,94.71
2023-04-21T08:43:09.568Z,94.60
2023-04-21T08:44:09.558Z,94.67
2023-04-21T08:45:09.572Z,94.67
2023-04-21T08:46:09.579Z,94.77
2023-04-21T08:47:09.547Z,94.97
2023-04-21T08:48:09.619Z,95.18
2023-04-21T08:49:09.509Z,94.77
2023-04-21T08:50:09.487Z,94.36
2023-04-21T08:51:09.459Z,94.46
2023-04-21T08:52:09.461Z,94.15
2023-04-21T08:53:09.484Z,93.65
2023-04-21T08:54:09.448Z,94.15
2023-04-21T08:55:09.658Z,94.52
2023-04-21T08:56:11.838Z,94.93
2023-04-21T08:57:15.516Z,94.93
2023-04-21T08:58:10.418Z,95.03
2023-04-21T08:59:09.376Z,94.52
2023-04-21T09:00:09.344Z,94.42
2023-04-21T09:01:09.354Z,94.52
2023-04-21T09:02:09.345Z,94.21
2023-04-21T09:03:19.174Z,94.21
2023-04-21T09:04:10.624Z,94.11
2023-04-21T09:05:09.397Z,93.70
2023-04-21T09:06:09.943Z,92.99
2023-04-21T09:07:09.260Z,92.99
2023-04-21T09:08:09.241Z,93.09
2023-04-21T09:09:09.254Z,93.50
2023-04-21T09:10:09.287Z,92.94
2023-04-21T09:11:09.207Z,92.27
2023-04-21T09:12:09.302Z,91.96
2023-04-21T09:13:09.170Z,91.56
2023-04-21T09:14:09.173Z,91.56
2023-04-21T09:15:09.413Z,91.76
2023-04-21T09:16:09.148Z,92.13
2023-04-21T09:17:09.249Z,92.54
2023-04-21T09:18:09.135Z,92.33
2023-04-21T09:19:09.102Z,92.33
2023-04-21T09:20:09.147Z,91.72
2023-04-21T09:21:09.075Z,91.61
2023-04-21T09:22:09.064Z,91.92
2023-04-21T09:23:09.051Z,92.02
2023-04-21T09:24:09.034Z,92.23
2023-04-21T09:25:09.053Z,92.13
2023-04-21T09:26:09.040Z,91.61
2023-04-21T09:27:09.027Z,91.41
2023-04-21T09:28:08.996Z,91.41
2023-04-21T09:29:08.991Z,91.52
2023-04-21T09:30:08.992Z,91.20
2023-04-21T09:31:09.030Z,91.31
2023-04-21T09:32:10.850Z,91.41
2023-04-21T09:33:20.097Z,91.52
2023-04-21T09:34:09.919Z,91.72
2023-04-21T09:35:08.913Z,92.02
2023-04-21T09:36:08.894Z,92.13
2023-04-21T09:37:08.855Z,92.33
2023-04-21T09:38:08.851Z,91.98
2023-04-21T09:40:08.885Z,90.08
2023-04-21T09:41:08.808Z,90.29
2023-04-21T09:42:08.795Z,90.70
2023-04-21T09:43:08.785Z,90.80
2023-04-21T09:44:08.777Z,90.70
2023-04-21T09:45:25.541Z,90.70
2023-04-21T09:46:09.862Z,91.00
2023-04-21T09:47:08.734Z,91.41
2023-04-21T09:48:08.967Z,91.31
2023-04-21T09:49:08.709Z,91.11
2023-04-21T09:50:12.254Z,91.31
2023-04-21T09:52:18.406Z,91.67
2023-04-21T09:53:09.643Z,91.47
2023-04-21T09:54:15.715Z,91.06
2023-04-21T09:55:09.629Z,91.06
2023-04-21T09:56:08.610Z,91.22
2023-04-21T09:57:08.603Z,91.22
2023-04-21T09:58:08.633Z,90.51
2023-04-21T09:59:08.576Z,90.20
2023-04-21T10:00:08.579Z,90.20
2023-04-21T10:01:08.620Z,90.20
2023-04-21T10:02:08.856Z,89.79
2023-04-21T10:03:08.656Z,89.49
2023-04-21T10:04:08.706Z,89.28
2023-04-21T10:05:08.572Z,89.08
2023-04-21T10:06:08.657Z,88.98
2023-04-21T10:07:08.532Z,89.18
2023-04-21T10:08:08.545Z,89.08
2023-04-21T10:09:08.453Z,88.78
2023-04-21T10:10:08.433Z,89.08
2023-04-21T10:11:08.425Z,89.28
2023-04-21T10:12:09.770Z,88.88
2023-04-21T10:13:08.398Z,89.08
2023-04-21T10:14:08.399Z,89.28
2023-04-21T10:15:08.371Z,89.39
2023-04-21T10:16:08.580Z,89.12
2023-04-21T10:17:08.375Z,89.32
2023-04-21T10:18:08.325Z,89.53
2023-04-21T10:19:08.347Z,89.63
2023-04-21T10:20:08.353Z,90.04
2023-04-21T10:21:08.287Z,89.94
2023-04-21T10:22:08.267Z,90.25
2023-04-21T10:23:08.297Z,90.51
2023-04-21T10:24:08.233Z,90.81
2023-04-21T10:25:08.354Z,90.20
2023-04-21T10:26:08.227Z,89.39
2023-04-21T10:27:08.224Z,89.39
2023-04-21T10:28:08.195Z,89.65
2023-04-21T10:29:08.174Z,90.57
2023-04-21T10:30:08.165Z,90.26
2023-04-21T10:31:08.207Z,89.55
2023-04-21T10:32:09.515Z,89.45
2023-04-21T10:33:08.172Z,89.86
2023-04-21T10:34:08.145Z,90.57
2023-04-21T10:35:08.123Z,90.01
2023-04-21T10:36:08.107Z,89.51
2023-04-21T10:37:08.109Z,89.30
2023-04-21T10:38:08.219Z,89.10
2023-04-21T10:39:08.056Z,88.18
2023-04-21T10:40:08.042Z,88.08
2023-04-21T10:41:08.042Z,88.08
2023-04-21T10:42:08.041Z,87.98
2023-04-21T10:43:08.002Z,87.57
2023-04-21T10:44:07.992Z,87.98
2023-04-21T10:45:07.981Z,88.59
2023-04-21T10:46:07.983Z,89.00
2023-04-21T10:47:08.063Z,88.90
2023-04-21T10:48:08.031Z,88.79
2023-04-21T10:49:07.960Z,88.79
2023-04-21T10:50:07.914Z,88.79
2023-04-21T10:51:07.902Z,88.28
2023-04-21T10:52:07.886Z,88.28
2023-04-21T10:53:07.911Z,88.55
2023-04-21T10:54:07.853Z,88.65
2023-04-21T10:55:07.870Z,88.45
2023-04-21T10:56:07.829Z,88.55
2023-04-21T10:57:07.878Z,88.34
2023-04-21T10:58:07.834Z,87.57
2023-04-21T10:59:07.791Z,87.67
2023-04-21T11:00:07.835Z,88.34
2023-04-21T11:01:07.842Z,88.55
2023-04-21T11:02:07.954Z,88.85
2023-04-21T11:03:08.202Z,88.65
2023-04-21T11:04:07.882Z,88.34
2023-04-21T11:05:07.862Z,87.94
2023-04-21T11:06:07.745Z,87.43
2023-04-21T11:07:07.687Z,87.12
2023-04-21T11:08:07.713Z,87.29
2023-04-21T11:09:07.661Z,87.29
2023-04-21T11:10:07.657Z,86.88
2023-04-21T11:11:07.639Z,86.37
2023-04-21T11:12:07.630Z,86.43
2023-04-21T11:13:07.611Z,87.14
2023-04-21T11:14:07.633Z,86.63
2023-04-21T11:15:07.612Z,86.74
2023-04-21T11:16:07.566Z,85.68
2023-04-21T11:17:07.617Z,85.88
2023-04-21T11:18:07.573Z,84.35
2023-04-21T11:19:07.575Z,84.05
2023-04-21T11:20:07.607Z,83.13
2023-04-21T11:21:07.521Z,81.91
2023-04-21T11:22:07.504Z,82.62
2023-04-21T11:23:07.480Z,82.79
2023-04-21T11:24:07.482Z,82.68
2023-04-21T11:25:07.550Z,82.89
2023-04-21T11:26:07.483Z,83.36
2023-04-21T11:27:07.445Z,83.76
2023-04-21T11:28:07.426Z,84.34
2023-04-21T11:29:07.414Z,84.84
2023-04-21T11:30:07.396Z,85.01
2023-04-21T11:31:07.417Z,84.40
2023-04-21T11:32:07.421Z,81.96
2023-04-21T11:33:07.381Z,78.61
2023-04-21T11:34:07.373Z,77.39
2023-04-21T11:35:07.349Z,77.86
2023-04-21T11:36:07.354Z,77.36
2023-04-21T11:37:07.333Z,79.28
2023-04-21T11:38:07.295Z,78.47
2023-04-21T11:39:07.307Z,78.13
2023-04-21T11:40:07.281Z,78.74
2023-04-21T11:41:07.258Z,77.99
2023-04-21T11:42:07.321Z,76.37
2023-04-21T11:43:07.285Z,75.56
2023-04-21T11:44:07.924Z,75.96
2023-04-21T11:45:07.210Z,75.05
2023-04-21T11:46:07.213Z,75.46
2023-04-21T11:47:07.189Z,76.98
2023-04-21T11:48:07.264Z,75.39
2023-04-21T11:49:07.193Z,75.59
2023-04-21T11:50:07.159Z,75.79
2023-04-21T11:51:07.130Z,74.71
2023-04-21T11:52:07.113Z,74.01
2023-04-21T11:53:07.189Z,74.51
2023-04-21T11:54:07.106Z,75.43
2023-04-21T11:55:07.075Z,75.93
2023-04-21T11:56:07.066Z,75.52
2023-04-21T11:57:07.064Z,75.83
2023-04-21T11:58:07.060Z,77.05
2023-04-21T11:59:07.061Z,77.05
2023-04-21T12:00:07.007Z,76.24
2023-04-21T12:01:06.995Z,77.25
2023-04-21T12:02:07.015Z,76.34
2023-04-21T12:03:07.106Z,76.75
2023-04-21T12:04:07.091Z,75.93
2023-04-21T12:05:07.143Z,76.31
2023-04-21T12:06:06.938Z,77.83
2023-04-21T12:07:06.916Z,76.71
2023-04-21T12:08:06.896Z,76.71
2023-04-21T12:09:06.901Z,76.91
2023-04-21T12:10:06.873Z,78.03
2023-04-21T12:11:06.857Z,79.11
2023-04-21T12:12:06.879Z,76.78
2023-04-21T12:13:06.893Z,75.56
2023-04-21T12:14:06.821Z,75.56
2023-04-21T12:15:06.825Z,76.57
2023-04-21T12:16:06.880Z,76.84
2023-04-21T12:17:06.771Z,75.12
2023-04-21T12:18:06.788Z,75.42
2023-04-21T12:19:06.767Z,74.41
2023-04-21T12:20:06.777Z,74.81
2023-04-21T12:21:06.814Z,73.90
2023-04-21T12:22:06.728Z,74.21
2023-04-21T12:23:06.761Z,74.91
2023-04-21T12:24:06.666Z,73.39
2023-04-21T12:25:06.694Z,73.70
2023-04-21T12:26:06.662Z,74.30
2023-04-21T12:27:06.747Z,74.51
2023-04-21T12:28:06.656Z,75.22
2023-04-21T12:29:06.622Z,73.76
2023-04-21T12:30:06.593Z,74.10
2023-04-21T12:31:06.616Z,74.30
2023-04-21T12:32:06.954Z,74.17
2023-04-21T12:33:06.689Z,74.68
2023-04-21T12:34:06.632Z,75.85
2023-04-21T12:35:06.544Z,74.24
2023-04-21T12:36:06.531Z,73.32
2023-04-21T12:37:06.501Z,73.09
2023-04-21T12:38:06.480Z,73.29
2023-04-21T12:39:06.551Z,72.38
2023-04-21T12:40:06.455Z,71.88
2023-04-21T12:41:06.471Z,71.57
2023-04-21T12:42:06.450Z,73.29
2023-04-21T12:43:06.409Z,72.99
2023-04-21T12:44:06.403Z,71.97
2023-04-21T12:45:06.492Z,71.67
2023-04-21T12:46:06.424Z,71.53
2023-04-21T12:47:06.362Z,72.44
2023-04-21T12:48:06.369Z,70.22
2023-04-21T12:49:06.336Z,70.32
2023-04-21T12:50:06.362Z,71.33
2023-04-21T12:51:06.401Z,72.34
2023-04-21T12:52:06.328Z,70.83
2023-04-21T12:53:07.357Z,71.03
2023-04-21T12:54:06.276Z,71.44
2023-04-21T12:55:06.292Z,71.57
2023-04-21T12:56:06.267Z,71.44
2023-04-21T12:57:06.221Z,71.97
2023-04-21T12:58:06.240Z,71.94